createdAt,value
2023-04-04T00:00:20.689Z,2.60
2023-04-04T00:02:47.275Z,2.20
2023-04-04T00:05:14.029Z,2.50
2023-04-04T00:07:40.573Z,2.10
2023-04-04T00:10:07.527Z,2.60
2023-04-04T00:12:34.035Z,2.80
2023-04-04T00:15:01.293Z,2.75
2023-04-04T00:17:27.765Z,2.92
2023-04-04T00:19:54.294Z,2.90
2023-04-04T00:22:20.777Z,2.67
2023-04-04T00:24:47.283Z,2.13
2023-04-04T00:27:14.010Z,2.05
2023-04-04T00:29:40.760Z,2.47
2023-04-04T00:32:07.314Z,2.35
2023-04-04T00:34:34.917Z,2.47
2023-04-04T00:37:01.427Z,3.10
2023-04-04T00:39:28.426Z,3.20
2023-04-04T00:41:55.010Z,2.42
2023-04-04T00:44:21.596Z,3.10
2023-04-04T00:46:48.405Z,2.22
2023-04-04T00:49:15.078Z,2.55
2023-04-04T00:51:41.599Z,2.50
2023-04-04T00:54:08.783Z,3.20
2023-04-04T00:56:37.358Z,2.80
2023-04-04T00:59:03.939Z,2.58
2023-04-04T01:01:31.956Z,2.38
2023-04-04T01:03:58.941Z,2.47
2023-04-04T01:06:26.523Z,2.65
2023-04-04T01:08:54.414Z,2.78
2023-04-04T01:11:21.346Z,2.55
2023-04-04T01:13:48.143Z,1.95
2023-04-04T01:16:16.642Z,3.17
2023-04-04T01:18:44.506Z,3.00
2023-04-04T01:21:13.564Z,2.30
2023-04-04T01:23:45.577Z,3.10
2023-04-04T01:26:13.019Z,2.42
2023-04-04T01:28:39.653Z,4.03
2023-04-04T01:31:12.887Z,2.90
2023-04-04T01:33:47.278Z,2.55
2023-04-04T01:36:21.626Z,2.80
2023-04-04T01:38:57.080Z,2.90
2023-04-04T01:41:25.025Z,3.08
2023-04-04T01:43:56.135Z,2.92
2023-04-04T01:46:24.003Z,3.10
2023-04-04T01:48:51.159Z,3.20
2023-04-04T01:51:22.465Z,3.53
2023-04-04T01:53:49.019Z,2.88
2023-04-04T01:56:15.640Z,2.97
2023-04-04T01:58:43.401Z,3.70
2023-04-04T02:01:09.970Z,4.38
2023-04-04T02:03:36.620Z,3.17
2023-04-04T02:06:03.191Z,3.30
2023-04-04T02:08:29.898Z,3.03
2023-04-04T02:10:58.707Z,3.13
2023-04-04T02:13:27.043Z,2.90
2023-04-04T02:15:54.989Z,3.55
2023-04-04T02:18:21.618Z,3.28
2023-04-04T02:20:55.600Z,3.20
2023-04-04T02:23:22.168Z,3.13
2023-04-04T02:25:50.978Z,2.80
2023-04-04T02:28:17.713Z,3.30
2023-04-04T02:30:44.300Z,2.95
2023-04-04T02:33:12.118Z,3.25
2023-04-04T02:35:38.797Z,2.92
2023-04-04T02:38:06.125Z,3.05
2023-04-04T02:40:39.877Z,3.28
2023-04-04T02:43:06.807Z,3.70
2023-04-04T02:45:34.079Z,3.13
2023-04-04T02:48:08.966Z,4.85
2023-04-04T02:50:43.500Z,2.85
2023-04-04T02:53:13.032Z,3.10
2023-04-04T02:55:39.595Z,2.90
2023-04-04T02:58:06.158Z,2.85
2023-04-04T03:00:32.726Z,3.40
2023-04-04T03:02:59.415Z,3.30
2023-04-04T03:05:31.990Z,3.05
2023-04-04T03:07:59.334Z,3.58
2023-04-04T03:10:29.900Z,2.97
2023-04-04T03:12:57.485Z,3.03
2023-04-04T03:15:26.513Z,3.17
2023-04-04T03:17:53.986Z,3.10
2023-04-04T03:20:24.633Z,4.00
2023-04-04T03:22:51.354Z,3.70
2023-04-04T03:25:17.898Z,3.70
2023-04-04T03:27:44.374Z,3.45
2023-04-04T03:30:14.078Z,3.70
2023-04-04T03:32:40.636Z,3.65
2023-04-04T03:35:07.533Z,3.08
2023-04-04T03:37:34.361Z,3.40
2023-04-04T03:40:01.096Z,3.58
2023-04-04T03:42:33.320Z,4.40
2023-04-04T03:44:59.855Z,3.60
2023-04-04T03:47:31.095Z,3.53
2023-04-04T03:49:59.098Z,3.38
2023-04-04T03:52:25.829Z,4.05
2023-04-04T03:54:52.314Z,3.65
2023-04-04T03:57:18.816Z,3.97
2023-04-04T03:59:45.336Z,4.05
2023-04-04T04:02:12.054Z,4.35
2023-04-04T04:04:38.824Z,3.92
2023-04-04T04:07:05.393Z,3.97
2023-04-04T04:09:31.898Z,4.43
2023-04-04T04:11:58.527Z,4.25
2023-04-04T04:14:25.070Z,3.65
2023-04-04T04:16:51.634Z,4.68
2023-04-04T04:19:21.333Z,4.15
2023-04-04T04:21:48.114Z,4.35
2023-04-04T04:24:14.778Z,3.78
2023-04-04T04:26:41.527Z,4.80
2023-04-04T04:29:08.444Z,4.53
2023-04-04T04:31:35.002Z,3.67
2023-04-04T04:34:05.351Z,4.00
2023-04-04T04:36:32.576Z,4.33
2023-04-04T04:39:11.173Z,4.35
2023-04-04T04:41:42.279Z,4.55
2023-04-04T04:44:10.444Z,4.05
2023-04-04T04:46:36.986Z,4.38
2023-04-04T04:49:10.624Z,4.65
2023-04-04T04:51:37.453Z,4.57
2023-04-04T04:54:04.088Z,3.92
2023-04-04T04:56:32.046Z,4.38
2023-04-04T04:59:07.435Z,5.05
2023-04-04T05:01:35.325Z,4.05
2023-04-04T05:04:02.114Z,4.15
2023-04-04T05:06:41.420Z,4.78
2023-04-04T05:09:10.945Z,4.50
2023-04-04T05:11:38.420Z,3.80
2023-04-04T05:14:07.123Z,4.55
2023-04-04T05:16:43.840Z,5.18
2023-04-04T05:19:10.642Z,4.30
2023-04-04T05:21:43.793Z,4.80
2023-04-04T05:24:17.288Z,4.72
2023-04-04T05:26:43.850Z,4.32
2023-04-04T05:29:10.392Z,4.40
2023-04-04T05:34:17.589Z,3.65
2023-04-04T05:36:44.170Z,4.53
2023-04-04T05:39:10.745Z,4.55
2023-04-04T05:41:44.558Z,4.05
2023-04-04T05:46:43.016Z,4.10
2023-04-04T05:49:10.073Z,5.07
2023-04-04T05:51:41.023Z,4.50
2023-04-04T05:54:11.088Z,5.47
2023-04-04T05:56:38.879Z,4.22
2023-04-04T05:59:11.484Z,5.40
2023-04-04T06:01:50.042Z,4.22
2023-04-04T06:04:17.240Z,4.63
2023-04-04T06:06:45.921Z,5.68
2023-04-04T06:09:12.756Z,4.70
2023-04-04T06:11:39.327Z,5.03
2023-04-04T06:14:08.760Z,3.97
2023-04-04T06:16:36.384Z,5.22
2023-04-04T06:19:03.230Z,4.10
2023-04-04T06:21:29.813Z,4.03
2023-04-04T06:23:57.019Z,4.85
2023-04-04T06:26:23.592Z,4.03
2023-04-04T06:28:51.925Z,4.13
2023-04-04T06:31:23.699Z,4.25
2023-04-04T06:33:52.359Z,4.63
2023-04-04T06:36:21.432Z,3.53
2023-04-04T06:38:48.244Z,4.13
2023-04-04T06:41:18.657Z,3.70
2023-04-04T06:43:49.425Z,3.70
2023-04-04T06:46:16.131Z,3.38
2023-04-04T06:48:43.441Z,3.38
2023-04-04T06:51:10.384Z,3.25
2023-04-04T06:53:41.923Z,3.17
2023-04-04T06:56:09.513Z,2.88
2023-04-04T06:58:39.068Z,2.10
2023-04-04T07:01:06.005Z,2.85
2023-04-04T07:03:32.592Z,3.00
2023-04-04T07:06:02.612Z,2.30
2023-04-04T07:08:34.459Z,2.30
2023-04-04T07:11:02.661Z,2.78
2023-04-04T07:13:29.502Z,2.85
2023-04-04T07:15:56.226Z,2.50
2023-04-04T07:18:22.733Z,2.65
2023-04-04T07:20:49.441Z,2.17
2023-04-04T07:23:15.917Z,2.53
2023-04-04T07:25:43.959Z,2.35
2023-04-04T07:28:13.245Z,2.40
2023-04-04T07:30:40.367Z,2.53
2023-04-04T07:33:07.194Z,2.08
2023-04-04T07:35:34.877Z,2.13
2023-04-04T07:38:01.394Z,2.20
2023-04-04T07:40:28.078Z,1.77
2023-04-04T07:42:54.652Z,2.40
2023-04-04T07:45:22.140Z,1.35
2023-04-04T07:47:48.966Z,2.15
2023-04-04T07:50:16.084Z,1.90
2023-04-04T07:52:42.974Z,2.42
2023-04-04T07:55:09.602Z,1.90
2023-04-04T07:57:39.542Z,2.13
2023-04-04T08:00:09.743Z,1.98
2023-04-04T08:02:40.219Z,2.80
2023-04-04T08:05:07.576Z,2.15
2023-04-04T08:07:34.031Z,2.30
2023-04-04T08:10:00.520Z,2.08
2023-04-04T08:12:27.038Z,2.03
2023-04-04T08:14:53.667Z,2.28
2023-04-04T08:17:20.459Z,2.05
2023-04-04T08:19:47.003Z,2.00
2023-04-04T08:22:13.743Z,2.60
2023-04-04T08:24:40.510Z,2.15
2023-04-04T08:27:07.012Z,1.75
2023-04-04T08:29:34.355Z,2.00
2023-04-04T08:32:01.189Z,1.70
2023-04-04T08:34:28.563Z,1.73
2023-04-04T08:36:55.228Z,1.83
2023-04-04T08:39:21.729Z,1.70
2023-04-04T08:41:58.124Z,1.70
2023-04-04T08:44:24.930Z,1.92
2023-04-04T08:46:51.894Z,1.65
2023-04-04T08:49:21.129Z,2.20
2023-04-04T08:51:48.536Z,1.85
2023-04-04T08:54:17.064Z,2.25
2023-04-04T08:56:43.568Z,2.30
2023-04-04T08:59:15.428Z,2.03
2023-04-04T09:01:42.258Z,2.05
2023-04-04T09:04:09.391Z,2.20
2023-04-04T09:06:36.874Z,1.70
2023-04-04T09:09:04.140Z,2.15
2023-04-04T09:11:31.692Z,1.70
2023-04-04T09:13:58.279Z,1.92
2023-04-04T09:16:24.943Z,1.80
2023-04-04T09:18:52.866Z,1.75
2023-04-04T09:21:19.630Z,1.65
2023-04-04T09:23:46.128Z,1.83
2023-04-04T09:26:13.302Z,2.13
2023-04-04T09:28:39.804Z,1.77
2023-04-04T09:31:08.293Z,2.13
2023-04-04T09:33:34.833Z,1.38
2023-04-04T09:36:11.560Z,1.80
2023-04-04T09:38:40.467Z,1.73
2023-04-04T09:41:09.821Z,1.98
2023-04-04T09:43:37.696Z,1.73
2023-04-04T09:46:05.419Z,1.60
2023-04-04T09:48:33.329Z,1.45
2023-04-04T09:51:00.041Z,2.05
2023-04-04T09:53:27.230Z,1.42
2023-04-04T09:55:55.021Z,1.33
2023-04-04T09:58:28.890Z,1.60
2023-04-04T10:00:57.467Z,1.67
2023-04-04T10:03:24.917Z,1.80
2023-04-04T10:06:04.233Z,1.60
2023-04-04T10:08:32.677Z,2.40
2023-04-04T10:13:36.183Z,1.67
2023-04-04T10:16:04.087Z,1.77
2023-04-04T10:18:35.612Z,1.95
2023-04-04T10:21:12.518Z,1.70
2023-04-04T10:23:43.387Z,2.20
2023-04-04T10:26:10.099Z,1.83
2023-04-04T10:28:36.945Z,2.08
2023-04-04T10:31:17.499Z,1.90
2023-04-04T10:34:00.828Z,2.03
2023-04-04T10:36:30.768Z,1.77
2023-04-04T10:39:14.551Z,1.83
2023-04-04T10:41:41.538Z,1.40
2023-04-04T10:44:31.845Z,1.50
2023-04-04T10:47:01.845Z,1.58
2023-04-04T10:49:29.749Z,1.67
2023-04-04T10:51:57.417Z,1.70
2023-04-04T10:54:25.954Z,1.55
2023-04-04T10:56:52.706Z,1.50
2023-04-04T10:59:19.330Z,1.80
2023-04-04T11:01:59.912Z,1.88
2023-04-04T11:04:39.176Z,1.60
2023-04-04T11:07:10.763Z,1.25
2023-04-04T11:09:54.294Z,1.63
2023-04-04T11:12:36.230Z,1.50
2023-04-04T11:15:04.095Z,1.40
2023-04-04T11:17:43.988Z,1.48
2023-04-04T11:20:11.795Z,1.58
2023-04-04T11:22:41.249Z,1.58
2023-04-04T11:25:38.078Z,1.60
2023-04-04T11:28:15.350Z,1.52
2023-04-04T11:33:29.364Z,1.77
2023-04-04T11:35:58.851Z,1.80
2023-04-04T11:38:26.860Z,1.42
2023-04-04T11:40:54.799Z,1.17
2023-04-04T11:43:21.483Z,1.50
2023-04-04T11:45:48.810Z,1.48
2023-04-04T11:48:17.796Z,1.70
2023-04-04T11:50:47.426Z,1.42
2023-04-04T11:53:13.950Z,1.10
2023-04-04T11:55:44.123Z,1.45
2023-04-04T11:58:13.271Z,1.60
2023-04-04T12:00:41.431Z,1.65
2023-04-04T12:03:13.385Z,1.63
2023-04-04T12:05:42.027Z,1.35
2023-04-04T12:08:10.292Z,1.55
2023-04-04T12:10:40.329Z,1.55
2023-04-04T12:13:08.329Z,1.52
2023-04-04T12:15:36.146Z,1.15
2023-04-04T12:18:06.554Z,1.55
2023-04-04T12:20:33.171Z,1.42
2023-04-04T12:22:59.758Z,1.45
2023-04-04T12:25:29.457Z,1.42
2023-04-04T12:27:56.593Z,1.48
2023-04-04T12:30:23.806Z,1.30
2023-04-04T12:32:50.984Z,1.40
2023-04-04T12:35:18.717Z,1.10
2023-04-04T12:37:58.131Z,1.48
2023-04-04T12:40:24.743Z,1.10
2023-04-04T12:42:51.764Z,1.30
2023-04-04T12:45:22.836Z,1.20
2023-04-04T12:47:56.288Z,1.60
2023-04-04T12:50:28.437Z,1.80
2023-04-04T12:53:08.390Z,1.20
2023-04-04T12:55:47.338Z,1.20
2023-04-04T12:58:17.189Z,1.30
2023-04-04T13:00:44.229Z,1.30
2023-04-04T13:03:12.832Z,1.15
2023-04-04T13:05:40.570Z,1.15
2023-04-04T13:08:08.382Z,1.10
2023-04-04T13:11:11.928Z,1.20
2023-04-04T13:13:40.980Z,1.17
2023-04-04T13:16:14.859Z,1.33
2023-04-04T13:18:43.417Z,1.25
2023-04-04T13:21:11.653Z,1.10
2023-04-04T13:23:39.736Z,1.60
2023-04-04T13:26:10.234Z,1.25
2023-04-04T13:28:36.749Z,1.38
2023-04-04T13:31:08.642Z,1.17
2023-04-04T13:33:35.634Z,1.15
2023-04-04T13:36:02.436Z,1.30
2023-04-04T13:38:29.619Z,1.10
2023-04-04T13:40:59.467Z,1.40
2023-04-04T13:43:26.258Z,1.23
2023-04-04T13:45:53.569Z,1.70
2023-04-04T13:48:20.120Z,1.40
2023-04-04T13:50:51.161Z,1.17
2023-04-04T13:56:01.507Z,1.45
2023-04-04T13:58:30.850Z,1.08
2023-04-04T14:00:57.447Z,1.30
2023-04-04T14:03:24.095Z,1.60
2023-04-04T14:05:50.724Z,1.30
2023-04-04T14:08:17.529Z,1.38
2023-04-04T14:10:44.102Z,1.30
2023-04-04T14:13:10.694Z,1.23
2023-04-04T14:15:37.256Z,1.10
2023-04-04T14:18:03.950Z,1.30
2023-04-04T14:20:30.851Z,1.23
2023-04-04T14:22:57.837Z,2.15
2023-04-04T14:25:24.377Z,1.30
2023-04-04T14:27:51.043Z,1.30
2023-04-04T14:30:17.624Z,1.30
2023-04-04T14:32:44.271Z,1.30
2023-04-04T14:35:10.863Z,1.20
2023-04-04T14:37:37.585Z,1.10
2023-04-04T14:40:05.616Z,1.17
2023-04-04T14:42:32.122Z,1.05
2023-04-04T14:44:58.706Z,1.00
2023-04-04T14:47:25.255Z,1.17
2023-04-04T14:49:52.237Z,1.02
2023-04-04T14:52:19.660Z,1.02
2023-04-04T14:54:46.340Z,1.27
2023-04-04T14:57:13.390Z,1.40
2023-04-04T14:59:39.950Z,1.27
2023-04-04T15:02:06.470Z,1.13
2023-04-04T15:04:33.419Z,1.33
2023-04-04T15:07:03.051Z,1.70
2023-04-04T15:09:33.073Z,1.38
2023-04-04T15:11:59.638Z,1.25
2023-04-04T15:14:26.274Z,1.27
2023-04-04T15:16:53.859Z,1.65
2023-04-04T15:19:20.591Z,1.30
2023-04-04T15:21:47.985Z,1.20
2023-04-04T15:24:14.542Z,1.23
2023-04-04T15:26:41.113Z,1.42
2023-04-04T15:29:07.868Z,1.48
2023-04-04T15:31:34.502Z,1.23
2023-04-04T15:34:01.434Z,1.42
2023-04-04T15:36:28.969Z,1.30
2023-04-04T15:38:56.125Z,1.17
2023-04-04T15:41:23.211Z,1.30
2023-04-04T15:43:49.798Z,1.40
2023-04-04T15:46:17.442Z,1.40
2023-04-04T15:48:44.121Z,1.50
2023-04-04T15:51:10.841Z,1.35
2023-04-04T15:53:37.372Z,1.30
2023-04-04T15:56:03.932Z,1.00
2023-04-04T15:58:30.534Z,1.25
2023-04-04T16:00:57.116Z,1.17
2023-04-04T16:03:25.677Z,1.23
2023-04-04T16:05:52.553Z,1.60
2023-04-04T16:08:19.148Z,1.30
2023-04-04T16:10:45.684Z,1.65
2023-04-04T16:13:13.291Z,1.13
2023-04-04T16:15:40.012Z,1.55
2023-04-04T16:18:07.147Z,1.52
2023-04-04T16:20:33.775Z,1.60
2023-04-04T16:23:00.671Z,1.50
2023-04-04T16:25:27.331Z,1.42
2023-04-04T16:27:53.989Z,1.05
2023-04-04T16:30:20.586Z,0.90
2023-04-04T16:32:47.350Z,1.23
2023-04-04T16:35:13.937Z,1.42
2023-04-04T16:37:40.801Z,1.40
2023-04-04T16:40:08.296Z,1.45
2023-04-04T16:42:34.868Z,1.20
2023-04-04T16:45:01.366Z,1.10
2023-04-04T16:47:28.387Z,1.40
2023-04-04T16:49:55.046Z,2.25
2023-04-04T16:52:21.908Z,1.30
2023-04-04T16:54:48.606Z,1.63
2023-04-04T16:57:15.152Z,1.60
2023-04-04T16:59:41.690Z,1.10
2023-04-04T17:02:08.297Z,1.58
2023-04-04T17:04:35.166Z,1.73
2023-04-04T17:07:02.289Z,1.52
2023-04-04T17:09:28.882Z,1.25
2023-04-04T17:11:57.292Z,1.33
2023-04-04T17:14:25.636Z,1.67
2023-04-04T17:16:53.341Z,1.63
2023-04-04T17:19:20.155Z,1.50
2023-04-04T17:21:47.001Z,1.30
2023-04-04T17:24:13.631Z,1.80
2023-04-04T17:26:40.129Z,1.67
2023-04-04T17:29:06.702Z,1.42
2023-04-04T17:31:33.397Z,1.40
2023-04-04T17:33:59.981Z,2.17
2023-04-04T17:36:27.030Z,1.50
2023-04-04T17:38:53.764Z,1.40
2023-04-04T17:41:20.288Z,2.17
2023-04-04T17:43:46.842Z,1.73
2023-04-04T17:46:13.388Z,1.50
2023-04-04T17:48:40.169Z,2.28
2023-04-04T17:51:08.350Z,1.90
2023-04-04T17:53:35.057Z,1.90
2023-04-04T17:56:01.669Z,1.73
2023-04-04T17:58:28.171Z,1.88
2023-04-04T18:00:56.129Z,2.10
2023-04-04T18:03:26.410Z,1.55
2023-04-04T18:05:53.129Z,1.80
2023-04-04T18:08:19.696Z,1.88
2023-04-04T18:10:46.344Z,2.10
2023-04-04T18:13:12.902Z,1.55
2023-04-04T18:15:39.623Z,1.80
2023-04-04T18:18:06.390Z,2.30
2023-04-04T18:20:35.256Z,1.88
2023-04-04T18:23:04.128Z,1.92
2023-04-04T18:25:33.912Z,1.60
2023-04-04T18:28:02.028Z,2.05
2023-04-04T18:30:28.693Z,2.00
2023-04-04T18:32:56.644Z,1.83
2023-04-04T18:35:23.523Z,1.50
2023-04-04T18:37:50.052Z,1.75
2023-04-04T18:40:17.682Z,1.48
2023-04-04T18:42:44.516Z,1.75
2023-04-04T18:45:11.519Z,1.65
2023-04-04T18:47:40.061Z,2.10
2023-04-04T18:50:08.242Z,2.28
2023-04-04T18:52:36.297Z,2.45
2023-04-04T18:55:04.055Z,2.90
2023-04-04T18:57:30.762Z,3.22
2023-04-04T18:59:57.347Z,2.95
2023-04-04T19:02:23.922Z,3.65
2023-04-04T19:04:55.443Z,3.65
2023-04-04T19:07:24.570Z,3.30
2023-04-04T19:09:51.594Z,3.22
2023-04-04T19:12:18.222Z,3.50
2023-04-04T19:14:44.748Z,3.05
2023-04-04T19:17:13.412Z,3.00
2023-04-04T19:19:39.961Z,3.33
2023-04-04T19:22:06.468Z,3.30
2023-04-04T19:24:32.970Z,2.90
2023-04-04T19:26:59.461Z,3.47
2023-04-04T19:29:26.028Z,3.30
2023-04-04T19:31:54.580Z,3.05
2023-04-04T19:34:21.496Z,2.50
2023-04-04T19:36:47.969Z,3.17
2023-04-04T19:39:20.858Z,3.22
2023-04-04T19:41:47.447Z,3.22
2023-04-04T19:44:20.595Z,3.00
2023-04-04T19:46:47.750Z,2.80
2023-04-04T19:49:15.633Z,2.70
2023-04-04T19:51:49.131Z,3.35
2023-04-04T19:54:15.897Z,4.25
2023-04-04T19:56:45.386Z,5.60
2023-04-04T19:59:46.857Z,6.28
2023-04-04T20:02:39.402Z,7.32
2023-04-04T20:05:28.552Z,5.40
2023-04-04T20:07:55.461Z,5.45
2023-04-04T20:10:40.106Z,5.55
2023-04-04T20:13:08.142Z,4.57
2023-04-04T20:15:50.196Z,3.97
2023-04-04T20:18:30.380Z,4.68
2023-04-04T20:21:05.340Z,4.70
2023-04-04T20:23:33.193Z,3.40
2023-04-04T20:26:05.815Z,3.38
2023-04-04T20:28:33.625Z,3.78
2023-04-04T20:31:10.205Z,3.42
2023-04-04T20:33:40.098Z,2.88
2023-04-04T20:36:12.401Z,3.00
2023-04-04T20:38:41.177Z,3.55
2023-04-04T20:41:16.434Z,3.10
2023-04-04T20:43:47.305Z,3.50
2023-04-04T20:46:14.084Z,3.28
2023-04-04T20:48:40.826Z,3.67
2023-04-04T20:51:36.766Z,3.72
2023-04-04T20:54:03.822Z,3.05
2023-04-04T20:56:46.190Z,2.88
2023-04-04T20:59:26.811Z,3.22
2023-04-04T21:01:53.897Z,3.00
2023-04-04T21:04:25.433Z,3.55
2023-04-04T21:06:56.439Z,3.20
2023-04-04T21:09:24.882Z,3.42
2023-04-04T21:11:51.889Z,3.78
2023-04-04T21:14:26.777Z,3.20
2023-04-04T21:16:53.285Z,3.53
2023-04-04T21:19:21.687Z,3.63
2023-04-04T21:21:49.321Z,3.65
2023-04-04T21:24:16.511Z,3.83
2023-04-04T21:26:44.038Z,3.30
2023-04-04T21:29:23.572Z,3.67
2023-04-04T21:31:52.519Z,3.17
2023-04-04T21:34:24.252Z,3.78
2023-04-04T21:36:55.892Z,3.42
2023-04-04T21:39:29.544Z,3.15
2023-04-04T21:42:06.849Z,3.22
2023-04-04T21:44:34.759Z,3.47
2023-04-04T21:47:01.384Z,3.50
2023-04-04T21:49:28.136Z,3.47
2023-04-04T21:51:54.693Z,4.15
2023-04-04T21:54:21.312Z,4.07
2023-04-04T21:56:47.923Z,3.60
2023-04-04T21:59:14.446Z,3.42
2023-04-04T22:01:41.419Z,3.75
2023-04-04T22:04:08.372Z,4.35
2023-04-04T22:06:34.939Z,3.67
2023-04-04T22:09:05.259Z,4.15
2023-04-04T22:11:34.366Z,3.42
2023-04-04T22:14:04.147Z,3.88
2023-04-04T22:16:31.899Z,3.63
2023-04-04T22:18:58.932Z,3.55
2023-04-04T22:21:28.363Z,3.53
2023-04-04T22:24:01.961Z,3.40
2023-04-04T22:26:31.954Z,3.67
2023-04-04T22:28:59.445Z,3.85
2023-04-04T22:31:26.686Z,3.40
2023-04-04T22:33:53.220Z,3.88
2023-04-04T22:36:19.791Z,3.20
2023-04-04T22:38:46.380Z,4.32
2023-04-04T22:41:12.864Z,3.83
2023-04-04T22:43:39.369Z,3.47
2023-04-04T22:46:06.017Z,3.35
2023-04-04T22:48:38.690Z,3.85
2023-04-04T22:51:05.195Z,3.42
2023-04-04T22:53:31.770Z,3.75
2023-04-04T22:55:59.825Z,3.85
2023-04-04T22:58:26.413Z,3.60
2023-04-04T23:00:53.164Z,3.80
2023-04-04T23:03:19.890Z,3.60
2023-04-04T23:05:46.412Z,3.45
2023-04-04T23:08:12.915Z,3.80
2023-04-04T23:10:39.751Z,3.53
2023-04-04T23:13:06.461Z,3.30
2023-04-04T23:15:35.662Z,3.50
2023-04-04T23:18:02.553Z,3.10
2023-04-04T23:20:32.097Z,4.20
2023-04-04T23:22:58.859Z,3.72
2023-04-04T23:25:26.443Z,3.33
2023-04-04T23:27:53.460Z,3.63
2023-04-04T23:30:20.524Z,3.55
2023-04-04T23:32:47.034Z,3.67
2023-04-04T23:35:13.711Z,3.95
2023-04-04T23:37:40.225Z,3.67
2023-04-04T23:40:07.702Z,3.78
2023-04-04T23:42:34.239Z,3.70
2023-04-04T23:45:02.292Z,3.15
2023-04-04T23:47:28.946Z,3.42
2023-04-04T23:49:55.722Z,3.20
2023-04-04T23:52:22.374Z,3.55
2023-04-04T23:54:48.904Z,3.60
2023-04-04T23:57:15.488Z,3.45
2023-04-04T23:59:42.088Z,3.83
